createdAt,value
2017-06-15T00:09:35.875Z,92.62
2017-06-15T00:29:36.331Z,90.30
2017-06-15T00:49:36.774Z,60.60
2017-06-15T01:09:37.172Z,36.69
2017-06-15T01:29:37.652Z,9.80
2017-06-15T01:49:38.181Z,50.58
2017-06-15T02:09:38.579Z,96.28
2017-06-15T02:29:38.985Z,61.85
2017-06-15T02:48:54.955Z,71.08
2017-06-15T03:08:55.404Z,83.47
2017-06-15T03:28:55.890Z,24.87
2017-06-15T03:48:56.424Z,16.69
2017-06-15T04:08:56.901Z,15.73
2017-06-15T04:28:57.496Z,0.10
2017-06-15T04:48:58.020Z,0.32
2017-06-15T05:08:58.571Z,0.15
2017-06-15T05:28:59.313Z,0.05
2017-06-15T05:48:59.508Z,2.94
2017-06-15T06:08:59.896Z,1.71
2017-06-15T06:29:00.434Z,0.86
2017-06-15T06:49:01.013Z,70.86
2017-06-15T07:09:01.509Z,69.50
2017-06-15T07:29:01.938Z,93.93
2017-06-15T07:49:02.353Z,43.87
2017-06-15T08:09:02.876Z,69.53
2017-06-15T08:29:03.386Z,73.93
2017-06-15T08:49:03.903Z,67.08
2017-06-15T09:09:04.370Z,41.87
2017-06-15T09:44:05.294Z,23.70
2017-06-15T10:04:05.768Z,21.73
2017-06-15T10:24:06.292Z,99.53
2017-06-15T10:44:06.800Z,98.87
2017-06-15T11:04:07.341Z,99.78
2017-06-15T11:24:07.804Z,72.92
2017-06-15T11:44:08.346Z,11.09
2017-06-15T12:04:08.893Z,8.43
2017-06-15T12:24:09.462Z,10.88
2017-06-15T12:44:54.369Z,60.14
2017-06-15T13:04:10.440Z,85.01
2017-06-15T13:24:10.897Z,100.00
2017-06-15T13:44:11.390Z,100.00
2017-06-15T14:04:11.913Z,100.00
2017-06-15T14:24:12.422Z,100.00
2017-06-15T14:44:12.931Z,100.00
2017-06-15T15:04:13.374Z,100.00
2017-06-15T15:24:13.908Z,99.53
2017-06-15T15:44:14.381Z,100.00
2017-06-15T16:04:14.905Z,100.00
2017-06-15T16:39:15.891Z,90.13
2017-06-15T16:59:16.414Z,100.00
2017-06-15T17:19:16.952Z,100.00
2017-06-15T17:39:17.495Z,100.00
2017-06-15T17:59:18.022Z,100.00
2017-06-15T18:19:18.485Z,100.00
2017-06-15T18:39:18.995Z,100.00
2017-06-15T18:59:19.479Z,86.42
2017-06-15T19:19:20.023Z,51.48
2017-06-15T19:39:20.498Z,84.15
2017-06-15T19:59:20.931Z,66.04
2017-06-15T20:19:21.699Z,98.38
2017-06-15T20:40:06.288Z,63.31
2017-06-15T21:00:06.762Z,99.98
2017-06-15T21:20:07.168Z,79.26
2017-06-15T21:40:07.681Z,4.18
2017-06-15T22:00:08.147Z,28.38
2017-06-15T22:20:08.687Z,50.11
2017-06-15T22:40:09.116Z,94.87
2017-06-15T23:00:09.469Z,99.69
2017-06-15T23:20:10.085Z,92.46
2017-06-15T23:40:10.408Z,65.16
